createdAt,value
2023-02-26T00:01:26.144Z,1.50
2023-02-26T00:03:55.843Z,1.49
2023-02-26T00:06:24.600Z,1.43
2023-02-26T00:08:52.162Z,1.32
2023-02-26T00:11:19.659Z,1.21
2023-02-26T00:13:47.037Z,1.09
2023-02-26T00:16:34.960Z,0.94
2023-02-26T00:19:05.041Z,0.88
2023-02-26T00:21:33.438Z,0.82
2023-02-26T00:24:02.221Z,0.82
2023-02-26T00:26:31.443Z,0.75
2023-02-26T00:28:59.454Z,0.78
2023-02-26T00:31:27.492Z,0.92
2023-02-26T00:33:56.256Z,1.03
2023-02-26T00:36:43.787Z,1.10
2023-02-26T00:39:38.678Z,1.13
2023-02-26T00:42:07.486Z,1.12
2023-02-26T00:44:34.909Z,1.08
2023-02-26T00:47:29.956Z,1.02
2023-02-26T00:50:17.392Z,0.93
2023-02-26T00:53:10.302Z,0.90
2023-02-26T00:55:38.203Z,0.81
2023-02-26T00:58:05.432Z,0.80
2023-02-26T01:00:32.783Z,0.76
2023-02-26T01:03:00.392Z,0.75
2023-02-26T01:05:28.128Z,0.68
2023-02-26T01:08:15.674Z,0.63
2023-02-26T01:10:43.244Z,0.64
2023-02-26T01:13:10.781Z,0.59
2023-02-26T01:15:38.128Z,0.63
2023-02-26T01:18:26.330Z,0.63
2023-02-26T01:21:01.731Z,0.61
2023-02-26T01:23:32.631Z,0.60
2023-02-26T01:26:06.215Z,0.56
2023-02-26T01:28:33.697Z,0.52
2023-02-26T01:31:05.886Z,0.50
2023-02-26T01:33:44.909Z,0.41
2023-02-26T01:36:22.845Z,0.37
2023-02-26T01:39:12.776Z,0.31
2023-02-26T01:41:43.558Z,0.33
2023-02-26T01:44:16.324Z,0.30
2023-02-26T01:46:58.713Z,0.28
2023-02-26T01:49:26.561Z,0.21
2023-02-26T01:52:04.968Z,0.16
2023-02-26T01:54:37.312Z,0.14
2023-02-26T01:57:07.336Z,0.13
2023-02-26T01:59:38.640Z,0.09
2023-02-26T02:02:09.093Z,0.07
2023-02-26T02:04:37.976Z,0.10
2023-02-26T02:07:06.316Z,0.25
2023-02-26T02:09:33.653Z,0.31
2023-02-26T02:12:11.264Z,0.30
2023-02-26T02:14:41.746Z,0.27
2023-02-26T02:17:15.278Z,0.27
2023-02-26T02:20:06.883Z,0.29
2023-02-26T02:23:25.788Z,0.34
2023-02-26T02:26:30.950Z,0.34
2023-02-26T02:29:03.912Z,0.37
2023-02-26T02:31:41.411Z,0.36
2023-02-26T02:34:27.400Z,0.36
2023-02-26T02:37:02.799Z,0.39
2023-02-26T02:39:35.161Z,0.41
2023-02-26T02:42:09.773Z,0.42
2023-02-26T02:44:42.095Z,0.42
2023-02-26T02:47:11.806Z,0.42
2023-02-26T02:49:54.138Z,0.39
2023-02-26T02:52:45.847Z,0.40
2023-02-26T02:55:19.888Z,0.25
2023-02-26T02:57:54.262Z,0.23
2023-02-26T03:00:24.092Z,0.23
2023-02-26T03:03:00.145Z,0.13
2023-02-26T03:05:27.774Z,0.07
2023-02-26T03:07:59.392Z,0.03
2023-02-26T03:10:26.746Z,0.02
2023-02-26T03:12:53.766Z,-0.01
2023-02-26T03:15:32.933Z,-0.08
2023-02-26T03:18:13.320Z,-0.01
2023-02-26T03:20:56.218Z,0.01
2023-02-26T03:23:27.084Z,0.01
2023-02-26T03:26:03.782Z,-0.09
2023-02-26T03:28:43.747Z,-0.08
2023-02-26T03:31:22.643Z,-0.14
2023-02-26T03:34:00.255Z,-0.10
2023-02-26T03:36:42.750Z,-0.11
2023-02-26T03:39:34.634Z,-0.09
2023-02-26T03:42:15.114Z,-0.15
2023-02-26T03:45:03.426Z,-0.15
2023-02-26T03:47:33.622Z,-0.19
2023-02-26T03:50:12.876Z,-0.23
2023-02-26T03:53:12.667Z,-0.27
2023-02-26T03:56:07.078Z,-0.34
2023-02-26T03:58:37.844Z,-0.33
2023-02-26T04:01:36.701Z,-0.36
2023-02-26T04:04:09.712Z,-0.35
2023-02-26T04:06:37.423Z,-0.36
2023-02-26T04:09:06.555Z,-0.46
2023-02-26T04:11:36.955Z,-0.44
2023-02-26T04:14:04.093Z,-0.45
2023-02-26T04:16:36.446Z,-0.44
2023-02-26T04:19:03.687Z,-0.47
2023-02-26T04:21:30.921Z,-0.43
2023-02-26T04:23:58.278Z,-0.42
2023-02-26T04:26:25.509Z,-0.39
2023-02-26T04:28:53.074Z,-0.39
2023-02-26T04:31:20.712Z,-0.39
2023-02-26T04:33:48.085Z,-0.37
2023-02-26T04:36:15.541Z,-0.36
2023-02-26T04:38:42.980Z,-0.31
2023-02-26T04:41:11.400Z,-0.34
2023-02-26T04:43:39.141Z,-0.29
2023-02-26T04:46:33.981Z,-0.31
2023-02-26T04:49:01.946Z,-0.30
2023-02-26T04:51:30.740Z,-0.29
2023-02-26T04:53:58.880Z,-0.26
2023-02-26T04:56:26.861Z,-0.19
2023-02-26T04:58:55.238Z,-0.13
2023-02-26T05:01:27.982Z,-0.10
2023-02-26T05:03:56.607Z,-0.06
2023-02-26T05:06:24.374Z,0.01
2023-02-26T05:08:52.790Z,0.08
2023-02-26T05:11:20.587Z,0.12
2023-02-26T05:13:48.714Z,0.17
2023-02-26T05:16:18.111Z,0.22
2023-02-26T05:18:45.683Z,0.28
2023-02-26T05:21:13.060Z,0.31
2023-02-26T05:23:40.438Z,0.42
2023-02-26T05:26:07.547Z,0.45
2023-02-26T05:28:37.115Z,0.52
2023-02-26T05:31:04.443Z,0.57
2023-02-26T05:33:32.050Z,0.59
2023-02-26T05:35:59.609Z,0.65
2023-02-26T05:38:27.021Z,0.70
2023-02-26T05:40:58.174Z,0.78
2023-02-26T05:43:26.264Z,0.80
2023-02-26T05:45:54.493Z,0.89
2023-02-26T05:48:23.745Z,0.96
2023-02-26T05:50:52.268Z,0.98
2023-02-26T05:53:20.425Z,1.11
2023-02-26T05:55:48.400Z,1.14
2023-02-26T05:58:16.072Z,1.22
2023-02-26T06:00:44.169Z,1.24
2023-02-26T06:03:13.016Z,1.35
2023-02-26T06:05:40.610Z,1.42
2023-02-26T06:08:08.369Z,1.47
2023-02-26T06:10:36.000Z,1.53
2023-02-26T06:13:03.919Z,1.59
2023-02-26T06:15:32.257Z,1.66
2023-02-26T06:17:59.548Z,1.71
2023-02-26T06:20:27.398Z,1.82
2023-02-26T06:22:55.312Z,1.85
2023-02-26T06:25:23.388Z,1.98
2023-02-26T06:27:51.046Z,2.02
2023-02-26T06:30:18.746Z,2.19
2023-02-26T06:32:46.304Z,2.33
2023-02-26T06:35:14.010Z,2.39
2023-02-26T06:37:41.379Z,2.53
2023-02-26T06:40:11.380Z,2.65
2023-02-26T06:42:39.194Z,2.75
2023-02-26T06:45:07.675Z,2.86
2023-02-26T06:47:36.275Z,2.97
2023-02-26T06:50:04.978Z,3.09
2023-02-26T06:52:34.092Z,3.21
2023-02-26T06:55:04.501Z,3.27
2023-02-26T06:57:32.241Z,3.37
2023-02-26T07:00:01.300Z,3.42
2023-02-26T07:02:28.574Z,3.55
2023-02-26T07:04:56.228Z,3.40
2023-02-26T07:07:24.315Z,3.68
2023-02-26T07:09:52.075Z,3.79
2023-02-26T07:12:20.185Z,3.89
2023-02-26T07:14:47.783Z,4.01
2023-02-26T07:17:20.908Z,4.11
2023-02-26T07:19:50.031Z,4.24
2023-02-26T07:22:21.422Z,4.42
2023-02-26T07:24:51.882Z,4.48
2023-02-26T07:27:19.424Z,4.61
2023-02-26T07:29:46.823Z,4.73
2023-02-26T07:32:14.417Z,4.83
2023-02-26T07:34:42.688Z,4.91
2023-02-26T07:37:13.852Z,5.13
2023-02-26T07:39:41.853Z,5.26
2023-02-26T07:42:10.126Z,5.44
2023-02-26T07:44:39.956Z,5.55
2023-02-26T07:47:07.931Z,5.60
2023-02-26T07:49:35.910Z,5.74
2023-02-26T07:52:04.133Z,5.89
2023-02-26T07:54:31.976Z,6.08
2023-02-26T07:56:59.530Z,6.14
2023-02-26T07:59:27.792Z,6.30
2023-02-26T08:01:56.155Z,6.43
2023-02-26T08:04:24.223Z,6.63
2023-02-26T08:06:55.208Z,6.85
2023-02-26T08:09:22.741Z,7.10
2023-02-26T08:11:51.045Z,7.27
2023-02-26T08:14:28.184Z,7.42
2023-02-26T08:16:55.930Z,7.54
2023-02-26T08:19:24.339Z,7.70
2023-02-26T08:21:52.478Z,7.64
2023-02-26T08:24:19.941Z,7.60
2023-02-26T08:26:48.071Z,7.68
2023-02-26T08:29:16.457Z,7.76
2023-02-26T08:31:46.295Z,7.90
2023-02-26T08:34:14.130Z,8.01
2023-02-26T08:36:42.227Z,8.00
2023-02-26T08:39:09.833Z,8.09
2023-02-26T08:41:38.150Z,8.24
2023-02-26T08:44:05.907Z,8.28
2023-02-26T08:46:33.963Z,8.36
2023-02-26T08:49:02.038Z,8.49
2023-02-26T08:51:29.929Z,8.68
2023-02-26T08:53:58.192Z,8.81
2023-02-26T08:56:26.547Z,8.93
2023-02-26T08:58:54.232Z,9.17
2023-02-26T09:01:22.198Z,9.30
2023-02-26T09:03:49.970Z,9.39
2023-02-26T09:06:17.988Z,9.51
2023-02-26T09:08:46.242Z,9.66
2023-02-26T09:11:14.207Z,9.77
2023-02-26T09:13:42.365Z,9.94
2023-02-26T09:16:12.102Z,10.01
2023-02-26T09:18:40.195Z,10.15
2023-02-26T09:21:07.926Z,10.53
2023-02-26T09:23:35.939Z,10.74
2023-02-26T09:26:04.628Z,10.82
2023-02-26T09:28:35.808Z,10.84
2023-02-26T09:31:03.835Z,10.91
2023-02-26T09:33:31.206Z,10.76
2023-02-26T09:35:59.950Z,10.83
2023-02-26T09:38:28.101Z,10.80
2023-02-26T09:41:04.116Z,10.56
2023-02-26T09:43:55.744Z,10.45
2023-02-26T09:46:29.083Z,10.44
2023-02-26T09:49:26.817Z,10.31
2023-02-26T09:51:59.004Z,10.12
2023-02-26T09:54:31.775Z,10.12
2023-02-26T09:57:01.433Z,10.25
2023-02-26T09:59:34.861Z,10.19
2023-02-26T10:02:11.042Z,10.26
2023-02-26T10:04:51.747Z,10.48
2023-02-26T10:07:38.088Z,10.68
2023-02-26T10:10:47.645Z,10.67
2023-02-26T10:13:57.087Z,10.63
2023-02-26T10:16:31.861Z,10.56
2023-02-26T10:19:07.432Z,10.45
2023-02-26T10:21:43.018Z,10.45
2023-02-26T10:24:22.561Z,10.47
2023-02-26T10:27:14.486Z,10.63
2023-02-26T10:29:50.938Z,10.94
2023-02-26T10:32:25.465Z,11.18
2023-02-26T10:35:27.486Z,11.46
2023-02-26T10:38:25.445Z,11.62
2023-02-26T10:41:06.890Z,11.78
2023-02-26T10:43:50.468Z,12.02
2023-02-26T10:46:51.073Z,12.19
2023-02-26T10:49:51.022Z,12.15
2023-02-26T10:52:21.562Z,12.40
2023-02-26T10:55:27.530Z,12.44
2023-02-26T10:58:11.514Z,12.38
2023-02-26T11:00:41.990Z,12.39
2023-02-26T11:03:17.429Z,12.35
2023-02-26T11:05:45.097Z,12.39
2023-02-26T11:08:28.311Z,12.45
2023-02-26T11:10:58.456Z,12.48
2023-02-26T11:13:29.337Z,12.43
2023-02-26T11:15:59.054Z,12.33
2023-02-26T11:18:51.303Z,12.38
2023-02-26T11:21:23.023Z,12.54
2023-02-26T11:24:14.628Z,12.70
2023-02-26T11:26:50.372Z,12.74
2023-02-26T11:29:23.487Z,12.98
2023-02-26T11:31:55.957Z,13.05
2023-02-26T11:34:25.701Z,13.03
2023-02-26T11:36:57.912Z,13.17
2023-02-26T11:39:28.224Z,13.39
2023-02-26T11:42:00.476Z,13.53
2023-02-26T11:44:44.302Z,13.46
2023-02-26T11:47:23.196Z,13.26
2023-02-26T11:49:53.735Z,13.31
2023-02-26T11:52:28.268Z,13.38
2023-02-26T11:55:17.803Z,13.60
2023-02-26T11:57:45.306Z,13.72
2023-02-26T12:00:27.235Z,13.62
2023-02-26T12:03:02.312Z,13.64
2023-02-26T12:05:29.835Z,13.77
2023-02-26T12:07:58.022Z,13.86
2023-02-26T12:11:11.934Z,13.85
2023-02-26T12:14:04.584Z,13.64
2023-02-26T12:16:44.314Z,13.35
2023-02-26T12:19:49.646Z,13.14
2023-02-26T12:23:11.740Z,12.72
2023-02-26T12:25:54.888Z,12.69
2023-02-26T12:28:40.290Z,12.49
2023-02-26T12:31:16.873Z,12.31
2023-02-26T12:33:56.404Z,12.06
2023-02-26T12:36:46.459Z,11.88
2023-02-26T12:39:37.456Z,11.44
2023-02-26T12:42:04.943Z,11.18
2023-02-26T12:44:57.151Z,10.98
2023-02-26T12:47:49.128Z,10.87
2023-02-26T12:50:45.947Z,10.44
2023-02-26T12:53:14.515Z,10.37
2023-02-26T12:55:53.493Z,10.33
2023-02-26T12:58:43.127Z,10.28
2023-02-26T13:01:25.552Z,10.16
2023-02-26T13:04:08.474Z,10.28
2023-02-26T13:06:54.598Z,10.20
2023-02-26T13:10:14.811Z,10.25
2023-02-26T13:13:11.359Z,10.10
2023-02-26T13:15:48.283Z,9.98
2023-02-26T13:18:16.240Z,9.89
2023-02-26T13:21:02.012Z,9.72
2023-02-26T13:23:53.054Z,9.52
2023-02-26T13:26:22.237Z,9.46
2023-02-26T13:28:50.094Z,9.41
2023-02-26T13:31:30.917Z,9.32
2023-02-26T13:34:30.497Z,9.27
2023-02-26T13:36:58.921Z,9.16
2023-02-26T13:39:45.073Z,9.12
2023-02-26T13:42:28.847Z,9.10
2023-02-26T13:45:24.091Z,9.09
2023-02-26T13:48:14.101Z,9.06
2023-02-26T13:51:08.142Z,9.03
2023-02-26T13:53:41.998Z,8.96
2023-02-26T13:56:18.364Z,8.87
2023-02-26T13:58:54.203Z,8.82
2023-02-26T14:01:49.555Z,8.81
2023-02-26T14:04:23.037Z,8.71
2023-02-26T14:07:08.668Z,8.65
2023-02-26T14:09:44.315Z,8.55
2023-02-26T14:12:15.995Z,8.39
2023-02-26T14:15:04.751Z,8.35
2023-02-26T14:17:35.883Z,8.21
2023-02-26T14:20:22.023Z,8.15
2023-02-26T14:23:11.702Z,8.08
2023-02-26T14:26:06.950Z,8.01
2023-02-26T14:28:42.374Z,7.89
2023-02-26T14:31:13.165Z,7.77
2023-02-26T14:33:46.409Z,7.73
2023-02-26T14:36:48.819Z,7.62
2023-02-26T14:39:28.671Z,7.52
2023-02-26T14:42:02.267Z,7.45
2023-02-26T14:44:40.946Z,7.35
2023-02-26T14:47:10.109Z,7.26
2023-02-26T14:49:44.317Z,7.16
2023-02-26T14:52:14.642Z,6.99
2023-02-26T14:54:49.295Z,6.95
2023-02-26T14:57:32.148Z,6.85
2023-02-26T15:00:38.344Z,6.77
2023-02-26T15:03:20.442Z,6.71
2023-02-26T15:06:35.408Z,6.58
2023-02-26T15:09:12.411Z,6.47
2023-02-26T15:12:12.265Z,6.39
2023-02-26T15:15:05.953Z,6.27
2023-02-26T15:17:45.257Z,6.17
2023-02-26T15:20:23.115Z,6.06
2023-02-26T15:23:18.131Z,5.99
2023-02-26T15:25:48.438Z,5.89
2023-02-26T15:28:29.804Z,5.78
2023-02-26T15:31:00.158Z,5.68
2023-02-26T15:33:27.958Z,5.62
2023-02-26T15:35:58.143Z,5.53
2023-02-26T15:38:26.088Z,5.45
2023-02-26T15:40:57.615Z,5.38
2023-02-26T15:43:27.833Z,5.27
2023-02-26T15:45:57.977Z,5.18
2023-02-26T15:48:34.874Z,5.08
2023-02-26T15:51:05.079Z,4.97
2023-02-26T15:53:37.135Z,4.86
2023-02-26T15:56:12.785Z,4.79
2023-02-26T15:58:46.471Z,4.76
2023-02-26T16:01:20.103Z,4.70
2023-02-26T16:03:48.159Z,4.64
2023-02-26T16:06:36.320Z,4.60
2023-02-26T16:09:07.065Z,4.52
2023-02-26T16:11:41.923Z,4.41
2023-02-26T16:14:17.800Z,4.36
2023-02-26T16:16:49.744Z,4.26
2023-02-26T16:19:29.012Z,4.24
2023-02-26T16:21:56.980Z,4.22
2023-02-26T16:24:24.267Z,4.22
2023-02-26T16:26:57.044Z,4.16
2023-02-26T16:29:30.600Z,4.09
2023-02-26T16:32:01.411Z,4.12
2023-02-26T16:34:50.505Z,4.08
2023-02-26T16:37:29.506Z,4.01
2023-02-26T16:40:16.081Z,4.00
2023-02-26T16:43:26.527Z,3.92
2023-02-26T16:45:57.617Z,3.85
2023-02-26T16:48:47.137Z,3.89
2023-02-26T16:51:20.398Z,3.80
2023-02-26T16:53:49.713Z,3.79
2023-02-26T16:56:24.496Z,3.74
2023-02-26T16:59:26.766Z,3.71
2023-02-26T17:02:01.110Z,3.65
2023-02-26T17:04:36.925Z,3.60
2023-02-26T17:07:31.741Z,3.58
2023-02-26T17:10:05.523Z,3.57
2023-02-26T17:13:16.374Z,3.54
2023-02-26T17:15:46.804Z,3.47
2023-02-26T17:18:14.741Z,3.50
2023-02-26T17:20:42.168Z,3.47
2023-02-26T17:23:11.727Z,3.47
2023-02-26T17:25:42.669Z,3.55
2023-02-26T17:28:15.278Z,3.63
2023-02-26T17:30:42.617Z,3.63
2023-02-26T17:33:13.204Z,3.65
2023-02-26T17:35:41.572Z,3.73
2023-02-26T17:38:13.518Z,3.75
2023-02-26T17:40:42.756Z,3.82
2023-02-26T17:43:10.548Z,3.84
2023-02-26T17:45:40.519Z,3.86
2023-02-26T17:48:08.350Z,3.89
2023-02-26T17:50:47.445Z,3.90
2023-02-26T17:53:16.388Z,3.93
2023-02-26T17:55:44.751Z,3.88
2023-02-26T17:58:18.030Z,3.92
2023-02-26T18:00:49.807Z,3.90
2023-02-26T18:03:17.663Z,3.90
2023-02-26T18:05:45.047Z,3.88
2023-02-26T18:08:40.784Z,3.88
2023-02-26T18:11:11.100Z,3.86
2023-02-26T18:13:38.899Z,3.81
2023-02-26T18:16:07.671Z,3.76
2023-02-26T18:18:34.905Z,3.79
2023-02-26T18:21:02.528Z,3.80
2023-02-26T18:23:29.704Z,3.77
2023-02-26T18:25:56.796Z,3.74
2023-02-26T18:28:27.036Z,3.73
2023-02-26T18:30:55.425Z,3.72
2023-02-26T18:33:23.711Z,3.70
2023-02-26T18:35:55.317Z,3.67
2023-02-26T18:38:27.931Z,3.66
2023-02-26T18:40:55.608Z,3.66
2023-02-26T18:43:23.203Z,3.64
2023-02-26T18:45:52.650Z,3.62
2023-02-26T18:48:21.413Z,3.61
2023-02-26T18:50:49.409Z,3.59
2023-02-26T18:53:17.863Z,3.53
2023-02-26T18:55:45.278Z,3.53
2023-02-26T18:58:12.620Z,3.55
2023-02-26T19:00:39.712Z,3.54
2023-02-26T19:03:07.935Z,3.57
2023-02-26T19:05:35.679Z,3.60
2023-02-26T19:08:06.163Z,3.63
2023-02-26T19:10:34.533Z,3.64
2023-02-26T19:13:02.481Z,3.65
2023-02-26T19:15:29.882Z,3.64
2023-02-26T19:17:57.111Z,3.63
2023-02-26T19:20:24.093Z,3.63
2023-02-26T19:22:51.183Z,3.59
2023-02-26T19:25:24.027Z,3.58
2023-02-26T19:27:53.772Z,3.57
2023-02-26T19:30:23.161Z,3.52
2023-02-26T19:32:51.315Z,3.53
2023-02-26T19:35:19.703Z,3.57
2023-02-26T19:37:46.790Z,3.59
2023-02-26T19:40:17.502Z,3.61
2023-02-26T19:42:44.715Z,3.57
2023-02-26T19:45:16.187Z,3.60
2023-02-26T19:47:43.393Z,3.61
2023-02-26T19:50:11.286Z,3.63
2023-02-26T19:52:38.363Z,3.64
2023-02-26T19:55:07.083Z,3.64
2023-02-26T19:57:34.799Z,3.68
2023-02-26T20:00:03.519Z,3.67
2023-02-26T20:02:39.391Z,3.67
2023-02-26T20:05:08.293Z,3.67
2023-02-26T20:07:35.458Z,3.65
2023-02-26T20:10:02.454Z,3.65
2023-02-26T20:12:30.569Z,3.64
2023-02-26T20:14:58.000Z,3.64
2023-02-26T20:17:25.110Z,3.65
2023-02-26T20:19:52.279Z,3.66
2023-02-26T20:22:22.917Z,3.61
2023-02-26T20:24:50.219Z,3.65
2023-02-26T20:27:17.564Z,3.63
2023-02-26T20:29:45.167Z,3.69
2023-02-26T20:32:12.390Z,3.64
2023-02-26T20:34:39.909Z,3.65
2023-02-26T20:37:07.121Z,3.63
2023-02-26T20:39:34.365Z,3.59
2023-02-26T20:42:01.796Z,3.63
2023-02-26T20:44:28.792Z,3.64
2023-02-26T20:46:55.868Z,3.65
2023-02-26T20:49:23.453Z,3.68
2023-02-26T20:51:50.760Z,3.68
2023-02-26T20:54:20.043Z,3.65
2023-02-26T20:56:48.915Z,3.63
2023-02-26T20:59:19.933Z,3.63
2023-02-26T21:01:48.668Z,3.61
2023-02-26T21:04:15.707Z,3.60
2023-02-26T21:06:42.791Z,3.59
2023-02-26T21:09:11.431Z,3.57
2023-02-26T21:11:39.359Z,3.55
2023-02-26T21:14:08.424Z,3.54
2023-02-26T21:16:36.863Z,3.49
2023-02-26T21:19:04.722Z,3.52
2023-02-26T21:21:32.031Z,3.51
2023-02-26T21:23:59.306Z,3.47
2023-02-26T21:26:27.772Z,3.42
2023-02-26T21:28:54.927Z,3.45
2023-02-26T21:31:22.532Z,3.40
2023-02-26T21:33:49.839Z,3.35
2023-02-26T21:36:17.033Z,3.32
2023-02-26T21:38:44.034Z,3.26
2023-02-26T21:41:10.969Z,3.22
2023-02-26T21:43:38.478Z,3.17
2023-02-26T21:46:06.282Z,3.12
2023-02-26T21:48:33.789Z,3.05
2023-02-26T21:51:01.574Z,2.93
2023-02-26T21:53:29.426Z,2.89
2023-02-26T21:55:57.869Z,2.82
2023-02-26T21:58:25.854Z,2.73
2023-02-26T22:00:52.849Z,2.62
2023-02-26T22:03:20.110Z,2.63
2023-02-26T22:05:51.007Z,2.61
2023-02-26T22:08:18.891Z,2.55
2023-02-26T22:10:46.094Z,2.51
2023-02-26T22:13:13.803Z,2.43
2023-02-26T22:15:41.564Z,2.46
2023-02-26T22:18:08.775Z,2.45
2023-02-26T22:20:35.921Z,2.46
2023-02-26T22:23:03.240Z,2.48
2023-02-26T22:25:31.164Z,2.45
2023-02-26T22:27:58.384Z,2.54
2023-02-26T22:30:25.605Z,2.59
2023-02-26T22:32:52.674Z,2.62
2023-02-26T22:35:19.598Z,2.64
2023-02-26T22:37:49.663Z,2.61
2023-02-26T22:40:17.219Z,2.62
2023-02-26T22:42:45.117Z,2.69
2023-02-26T22:45:13.810Z,2.73
2023-02-26T22:47:40.804Z,2.72
2023-02-26T22:50:08.737Z,2.81
2023-02-26T22:52:35.870Z,2.81
2023-02-26T22:55:02.878Z,2.72
2023-02-26T22:57:30.150Z,2.82
2023-02-26T22:59:58.185Z,2.85
2023-02-26T23:02:25.779Z,2.80
2023-02-26T23:04:52.792Z,2.86
2023-02-26T23:07:20.945Z,2.91
2023-02-26T23:09:48.090Z,2.93
2023-02-26T23:12:14.979Z,2.92
2023-02-26T23:14:42.908Z,2.93
2023-02-26T23:17:11.503Z,2.83
2023-02-26T23:19:39.015Z,2.88
2023-02-26T23:22:06.452Z,2.87
2023-02-26T23:24:33.576Z,2.84
2023-02-26T23:27:01.115Z,2.82
2023-02-26T23:29:28.091Z,2.71
2023-02-26T23:31:55.261Z,2.67
2023-02-26T23:34:22.596Z,2.70
2023-02-26T23:36:49.605Z,2.52
2023-02-26T23:39:16.572Z,2.53
2023-02-26T23:41:43.507Z,2.42
2023-02-26T23:44:10.637Z,2.28
2023-02-26T23:46:37.819Z,2.30
2023-02-26T23:49:05.078Z,2.23
2023-02-26T23:51:31.984Z,1.99
2023-02-26T23:53:58.951Z,1.87
2023-02-26T23:56:25.765Z,1.81
2023-02-26T23:58:53.005Z,1.97
